createdAt,value
2019-04-14T00:01:20.153Z,4.70
2019-04-14T00:04:03.065Z,4.70
2019-04-14T00:06:37.749Z,4.60
2019-04-14T00:09:16.250Z,4.50
2019-04-14T00:11:48.404Z,4.50
2019-04-14T00:14:20.879Z,4.50
2019-04-14T00:16:53.216Z,4.40
2019-04-14T00:19:26.159Z,4.40
2019-04-14T00:22:03.215Z,4.50
2019-04-14T00:24:35.723Z,4.40
2019-04-14T00:27:08.523Z,4.50
2019-04-14T00:29:41.413Z,4.40
2019-04-14T00:32:14.118Z,4.30
2019-04-14T00:34:59.424Z,4.40
2019-04-14T00:37:49.062Z,4.50
2019-04-14T00:40:29.963Z,4.40
2019-04-14T00:43:16.175Z,4.40
2019-04-14T00:45:56.204Z,4.50
2019-04-14T00:48:28.125Z,4.50
2019-04-14T00:51:00.575Z,4.50
2019-04-14T00:53:33.812Z,4.50
2019-04-14T00:56:06.182Z,4.50
2019-04-14T00:58:38.926Z,4.50
2019-04-14T01:01:11.237Z,4.40
2019-04-14T01:03:43.771Z,4.50
2019-04-14T01:06:16.421Z,4.50
2019-04-14T01:08:48.985Z,4.30
2019-04-14T01:11:20.982Z,4.20
2019-04-14T01:13:53.038Z,4.20
2019-04-14T01:16:26.562Z,4.20
2019-04-14T01:19:00.446Z,4.20
2019-04-14T01:21:32.804Z,4.30
2019-04-14T01:24:05.335Z,4.30
2019-04-14T01:26:37.811Z,4.30
2019-04-14T01:29:10.079Z,4.30
2019-04-14T01:31:42.715Z,4.30
2019-04-14T01:34:15.216Z,4.30
2019-04-14T01:36:47.546Z,4.30
2019-04-14T01:39:19.820Z,4.30
2019-04-14T01:41:52.064Z,4.20
2019-04-14T01:44:24.265Z,4.20
2019-04-14T01:46:56.619Z,4.20
2019-04-14T01:49:29.049Z,4.20
2019-04-14T01:52:16.979Z,4.20
2019-04-14T01:55:02.550Z,4.20
2019-04-14T01:57:41.477Z,4.20
2019-04-14T02:00:33.795Z,4.20
2019-04-14T02:03:06.210Z,4.30
2019-04-14T02:05:38.575Z,4.30
2019-04-14T02:08:11.183Z,4.40
2019-04-14T02:10:43.553Z,4.40
2019-04-14T02:13:15.723Z,4.40
2019-04-14T02:15:48.543Z,4.40
2019-04-14T02:18:20.930Z,4.30
2019-04-14T02:20:53.611Z,4.10
2019-04-14T02:23:25.856Z,4.10
2019-04-14T02:25:58.080Z,4.20
2019-04-14T02:28:31.012Z,4.10
2019-04-14T02:34:25.983Z,3.90
2019-04-14T02:36:56.892Z,4.00
2019-04-14T02:39:36.491Z,3.90
2019-04-14T02:44:38.387Z,4.00
2019-04-14T02:47:18.158Z,4.00
2019-04-14T02:49:44.004Z,3.90
2019-04-14T02:52:20.598Z,3.90
2019-04-14T02:57:23.090Z,3.90
2019-04-14T03:00:03.513Z,3.80
2019-04-14T03:02:44.609Z,3.80
2019-04-14T03:05:08.116Z,3.80
2019-04-14T03:10:20.893Z,3.70
2019-04-14T03:12:46.454Z,3.80
2019-04-14T03:18:24.491Z,4.00
2019-04-14T03:21:05.926Z,4.00
2019-04-14T03:23:46.782Z,4.00
2019-04-14T03:26:11.725Z,4.00
2019-04-14T03:29:16.886Z,4.10
2019-04-14T03:31:59.767Z,4.10
2019-04-14T03:34:30.312Z,4.20
2019-04-14T03:39:17.389Z,4.10
2019-04-14T03:41:47.330Z,4.20
2019-04-14T03:46:55.456Z,4.30
2019-04-14T03:49:31.821Z,4.30
2019-04-14T03:52:03.728Z,4.40
2019-04-14T03:54:36.564Z,4.30
2019-04-14T03:56:55.455Z,4.40
2019-04-14T03:59:28.224Z,4.30
2019-04-14T04:02:00.869Z,4.20
2019-04-14T04:04:33.775Z,4.30
2019-04-14T04:07:06.269Z,4.20
2019-04-14T04:09:43.463Z,4.10
2019-04-14T04:12:16.031Z,4.10
2019-04-14T04:14:48.559Z,4.00
2019-04-14T04:17:40.890Z,4.00
2019-04-14T04:20:30.671Z,4.00
2019-04-14T04:23:09.605Z,4.00
2019-04-14T04:25:48.972Z,3.90
2019-04-14T04:28:47.100Z,3.90
2019-04-14T04:31:35.041Z,3.90
2019-04-14T04:34:29.491Z,3.90
2019-04-14T04:37:15.127Z,3.80
2019-04-14T04:39:48.151Z,3.70
2019-04-14T04:42:20.050Z,3.70
2019-04-14T04:44:53.144Z,3.80
2019-04-14T04:47:25.469Z,3.70
2019-04-14T04:49:57.603Z,3.70
2019-04-14T04:52:30.091Z,3.70
2019-04-14T04:55:02.631Z,3.80
2019-04-14T04:57:35.213Z,3.90
